sensor_id;sensor_type;location;lat;lon;timestamp;P1;durP1;ratioP1;P2;durP2;ratioP2
35644;SDS011;21764;52.042;6.830;2023-05-07T00:03:41;30.27;;;24.13;;
35644;SDS011;21764;52.042;6.830;2023-05-07T00:08:42;29.52;;;24.83;;
35644;SDS011;21764;52.042;6.830;2023-05-07T00:13:42;28.90;;;24.75;;
35644;SDS011;21764;52.042;6.830;2023-05-07T00:18:43;32.15;;;25.90;;
35644;SDS011;21764;52.042;6.830;2023-05-07T00:23:45;29.60;;;25.73;;
35644;SDS011;21764;52.042;6.830;2023-05-07T00:28:45;32.55;;;26.30;;
35644;SDS011;21764;52.042;6.830;2023-05-07T00:33:46;30.30;;;26.42;;
35644;SDS011;21764;52.042;6.830;2023-05-07T00:38:46;34.40;;;28.77;;
35644;SDS011;21764;52.042;6.830;2023-05-07T00:43:47;34.88;;;29.52;;
35644;SDS011;21764;52.042;6.830;2023-05-07T00:48:48;36.42;;;30.30;;
35644;SDS011;21764;52.042;6.830;2023-05-07T00:53:50;37.50;;;30.25;;
35644;SDS011;21764;52.042;6.830;2023-05-07T00:58:51;36.33;;;30.02;;
35644;SDS011;21764;52.042;6.830;2023-05-07T01:03:52;37.60;;;31.15;;
35644;SDS011;21764;52.042;6.830;2023-05-07T01:08:53;38.47;;;31.77;;
35644;SDS011;21764;52.042;6.830;2023-05-07T01:13:56;38.95;;;32.83;;
35644;SDS011;21764;52.042;6.830;2023-05-07T01:19:00;39.67;;;34.42;;
35644;SDS011;21764;52.042;6.830;2023-05-07T01:24:01;42.03;;;34.47;;
35644;SDS011;21764;52.042;6.830;2023-05-07T01:29:01;40.65;;;36.28;;
35644;SDS011;21764;52.042;6.830;2023-05-07T01:34:02;43.60;;;38.13;;
35644;SDS011;21764;52.042;6.830;2023-05-07T01:39:05;48.03;;;36.28;;
35644;SDS011;21764;52.042;6.830;2023-05-07T01:44:07;46.92;;;35.92;;
35644;SDS011;21764;52.042;6.830;2023-05-07T01:49:10;51.42;;;40.55;;
35644;SDS011;21764;52.042;6.830;2023-05-07T01:54:10;49.92;;;40.28;;
35644;SDS011;21764;52.042;6.830;2023-05-07T01:59:11;47.00;;;41.45;;
35644;SDS011;21764;52.042;6.830;2023-05-07T02:04:13;53.33;;;43.28;;
35644;SDS011;21764;52.042;6.830;2023-05-07T02:09:14;54.38;;;41.65;;
35644;SDS011;21764;52.042;6.830;2023-05-07T02:14:15;51.47;;;40.40;;
35644;SDS011;21764;52.042;6.830;2023-05-07T02:19:15;55.30;;;45.45;;
35644;SDS011;21764;52.042;6.830;2023-05-07T02:24:16;56.22;;;44.67;;
35644;SDS011;21764;52.042;6.830;2023-05-07T02:29:16;54.25;;;44.28;;
35644;SDS011;21764;52.042;6.830;2023-05-07T02:34:17;56.88;;;44.78;;
35644;SDS011;21764;52.042;6.830;2023-05-07T02:39:18;67.40;;;48.70;;
35644;SDS011;21764;52.042;6.830;2023-05-07T02:44:19;66.43;;;49.38;;
35644;SDS011;21764;52.042;6.830;2023-05-07T02:49:19;65.55;;;50.45;;
35644;SDS011;21764;52.042;6.830;2023-05-07T02:54:20;66.80;;;49.30;;
35644;SDS011;21764;52.042;6.830;2023-05-07T02:59:21;71.03;;;51.88;;
35644;SDS011;21764;52.042;6.830;2023-05-07T03:04:22;68.90;;;50.28;;
35644;SDS011;21764;52.042;6.830;2023-05-07T03:09:22;67.43;;;51.65;;
35644;SDS011;21764;52.042;6.830;2023-05-07T03:14:23;65.03;;;48.80;;
35644;SDS011;21764;52.042;6.830;2023-05-07T03:19:24;69.28;;;50.35;;
35644;SDS011;21764;52.042;6.830;2023-05-07T03:24:25;70.63;;;47.97;;
35644;SDS011;21764;52.042;6.830;2023-05-07T03:29:25;75.40;;;48.35;;
35644;SDS011;21764;52.042;6.830;2023-05-07T03:34:26;66.93;;;46.50;;
35644;SDS011;21764;52.042;6.830;2023-05-07T03:39:26;71.78;;;43.15;;
35644;SDS011;21764;52.042;6.830;2023-05-07T03:44:27;60.97;;;36.75;;
35644;SDS011;21764;52.042;6.830;2023-05-07T03:49:28;65.13;;;43.92;;
35644;SDS011;21764;52.042;6.830;2023-05-07T03:54:29;66.82;;;44.28;;
35644;SDS011;21764;52.042;6.830;2023-05-07T03:59:30;59.78;;;40.85;;
35644;SDS011;21764;52.042;6.830;2023-05-07T04:04:31;70.20;;;45.78;;
35644;SDS011;21764;52.042;6.830;2023-05-07T04:09:32;66.65;;;42.67;;
35644;SDS011;21764;52.042;6.830;2023-05-07T04:14:33;73.80;;;43.53;;
35644;SDS011;21764;52.042;6.830;2023-05-07T04:19:34;76.25;;;46.88;;
35644;SDS011;21764;52.042;6.830;2023-05-07T04:24:34;73.93;;;46.50;;
35644;SDS011;21764;52.042;6.830;2023-05-07T04:29:35;70.53;;;42.95;;
35644;SDS011;21764;52.042;6.830;2023-05-07T04:34:36;71.95;;;43.03;;
35644;SDS011;21764;52.042;6.830;2023-05-07T04:39:36;59.88;;;40.60;;
35644;SDS011;21764;52.042;6.830;2023-05-07T04:44:37;59.65;;;37.90;;
35644;SDS011;21764;52.042;6.830;2023-05-07T04:49:38;47.67;;;33.47;;
35644;SDS011;21764;52.042;6.830;2023-05-07T04:54:39;49.83;;;32.72;;
35644;SDS011;21764;52.042;6.830;2023-05-07T04:59:39;52.05;;;35.22;;
35644;SDS011;21764;52.042;6.830;2023-05-07T05:04:40;50.03;;;31.90;;
35644;SDS011;21764;52.042;6.830;2023-05-07T05:09:40;50.42;;;35.47;;
35644;SDS011;21764;52.042;6.830;2023-05-07T05:14:41;57.50;;;36.05;;
35644;SDS011;21764;52.042;6.830;2023-05-07T05:19:42;52.88;;;34.72;;
35644;SDS011;21764;52.042;6.830;2023-05-07T05:24:43;52.17;;;36.78;;
35644;SDS011;21764;52.042;6.830;2023-05-07T05:29:44;61.60;;;37.78;;
35644;SDS011;21764;52.042;6.830;2023-05-07T05:34:44;50.75;;;34.80;;
35644;SDS011;21764;52.042;6.830;2023-05-07T05:39:45;52.70;;;35.17;;
35644;SDS011;21764;52.042;6.830;2023-05-07T05:44:46;52.15;;;37.28;;
35644;SDS011;21764;52.042;6.830;2023-05-07T05:49:46;57.00;;;34.97;;
35644;SDS011;21764;52.042;6.830;2023-05-07T05:54:47;48.03;;;36.08;;
35644;SDS011;21764;52.042;6.830;2023-05-07T05:59:48;50.90;;;35.65;;
35644;SDS011;21764;52.042;6.830;2023-05-07T06:04:48;45.15;;;31.20;;
35644;SDS011;21764;52.042;6.830;2023-05-07T06:09:49;45.03;;;31.42;;
35644;SDS011;21764;52.042;6.830;2023-05-07T06:14:50;42.90;;;27.85;;
35644;SDS011;21764;52.042;6.830;2023-05-07T06:19:51;40.90;;;29.65;;
35644;SDS011;21764;52.042;6.830;2023-05-07T06:24:51;45.13;;;28.88;;
35644;SDS011;21764;52.042;6.830;2023-05-07T06:29:52;45.40;;;29.90;;
35644;SDS011;21764;52.042;6.830;2023-05-07T06:34:53;39.97;;;26.95;;
35644;SDS011;21764;52.042;6.830;2023-05-07T06:39:53;36.38;;;27.75;;
35644;SDS011;21764;52.042;6.830;2023-05-07T06:44:54;35.40;;;25.63;;
35644;SDS011;21764;52.042;6.830;2023-05-07T06:49:55;34.35;;;26.40;;
35644;SDS011;21764;52.042;6.830;2023-05-07T06:54:56;37.60;;;26.65;;
35644;SDS011;21764;52.042;6.830;2023-05-07T06:59:56;39.78;;;27.52;;
35644;SDS011;21764;52.042;6.830;2023-05-07T07:04:57;39.60;;;27.52;;
35644;SDS011;21764;52.042;6.830;2023-05-07T07:09:58;38.72;;;27.10;;
35644;SDS011;21764;52.042;6.830;2023-05-07T07:14:58;39.42;;;27.25;;
35644;SDS011;21764;52.042;6.830;2023-05-07T07:19:59;38.50;;;27.98;;
35644;SDS011;21764;52.042;6.830;2023-05-07T07:25:00;39.58;;;27.10;;
35644;SDS011;21764;52.042;6.830;2023-05-07T07:30:01;38.33;;;27.42;;
35644;SDS011;21764;52.042;6.830;2023-05-07T07:35:01;31.85;;;24.92;;
35644;SDS011;21764;52.042;6.830;2023-05-07T07:40:02;35.63;;;25.92;;
35644;SDS011;21764;52.042;6.830;2023-05-07T07:45:03;36.30;;;23.40;;
35644;SDS011;21764;52.042;6.830;2023-05-07T07:50:05;30.60;;;21.77;;
35644;SDS011;21764;52.042;6.830;2023-05-07T07:55:06;32.42;;;23.75;;
35644;SDS011;21764;52.042;6.830;2023-05-07T08:00:07;31.77;;;22.08;;
35644;SDS011;21764;52.042;6.830;2023-05-07T08:05:09;32.97;;;23.27;;
35644;SDS011;21764;52.042;6.830;2023-05-07T08:10:10;30.50;;;22.60;;
35644;SDS011;21764;52.042;6.830;2023-05-07T08:15:11;32.33;;;21.42;;
35644;SDS011;21764;52.042;6.830;2023-05-07T08:20:11;28.27;;;19.27;;
35644;SDS011;21764;52.042;6.830;2023-05-07T08:25:12;27.23;;;19.85;;
35644;SDS011;21764;52.042;6.830;2023-05-07T08:30:13;27.75;;;19.02;;
35644;SDS011;21764;52.042;6.830;2023-05-07T08:35:14;27.88;;;18.85;;
35644;SDS011;21764;52.042;6.830;2023-05-07T08:40:14;29.77;;;19.70;;
35644;SDS011;21764;52.042;6.830;2023-05-07T08:45:15;26.13;;;18.45;;
35644;SDS011;21764;52.042;6.830;2023-05-07T08:50:19;21.88;;;17.05;;
35644;SDS011;21764;52.042;6.830;2023-05-07T08:55:20;23.80;;;16.58;;
35644;SDS011;21764;52.042;6.830;2023-05-07T09:00:22;23.95;;;15.23;;
35644;SDS011;21764;52.042;6.830;2023-05-07T09:05:23;19.45;;;14.77;;
35644;SDS011;21764;52.042;6.830;2023-05-07T09:10:23;19.60;;;14.25;;
35644;SDS011;21764;52.042;6.830;2023-05-07T09:15:26;18.13;;;15.10;;
35644;SDS011;21764;52.042;6.830;2023-05-07T09:20:29;16.70;;;14.88;;
35644;SDS011;21764;52.042;6.830;2023-05-07T09:25:31;19.33;;;15.83;;
35644;SDS011;21764;52.042;6.830;2023-05-07T09:30:33;21.83;;;15.90;;
35644;SDS011;21764;52.042;6.830;2023-05-07T09:35:35;20.75;;;14.05;;
35644;SDS011;21764;52.042;6.830;2023-05-07T09:40:38;18.23;;;14.27;;
35644;SDS011;21764;52.042;6.830;2023-05-07T09:45:39;17.65;;;14.10;;
35644;SDS011;21764;52.042;6.830;2023-05-07T09:50:44;17.98;;;12.98;;
35644;SDS011;21764;52.042;6.830;2023-05-07T09:55:50;17.40;;;13.63;;
35644;SDS011;21764;52.042;6.830;2023-05-07T10:00:52;17.88;;;13.95;;
35644;SDS011;21764;52.042;6.830;2023-05-07T10:05:53;18.08;;;13.35;;
35644;SDS011;21764;52.042;6.830;2023-05-07T10:10:55;17.42;;;13.25;;
35644;SDS011;21764;52.042;6.830;2023-05-07T10:15:55;16.38;;;11.77;;
35644;SDS011;21764;52.042;6.830;2023-05-07T10:20:57;15.10;;;13.30;;
35644;SDS011;21764;52.042;6.830;2023-05-07T10:26:13;17.55;;;13.60;;
35644;SDS011;21764;52.042;6.830;2023-05-07T10:36:37;19.70;;;16.27;;
35644;SDS011;21764;52.042;6.830;2023-05-07T10:41:39;24.58;;;14.63;;
35644;SDS011;21764;52.042;6.830;2023-05-07T10:46:40;20.77;;;14.75;;
35644;SDS011;21764;52.042;6.830;2023-05-07T10:51:40;22.90;;;15.85;;
35644;SDS011;21764;52.042;6.830;2023-05-07T10:56:41;21.92;;;16.10;;
35644;SDS011;21764;52.042;6.830;2023-05-07T11:01:50;20.33;;;16.50;;
35644;SDS011;21764;52.042;6.830;2023-05-07T11:12:08;22.33;;;14.82;;
35644;SDS011;21764;52.042;6.830;2023-05-07T11:17:09;19.80;;;13.95;;
35644;SDS011;21764;52.042;6.830;2023-05-07T11:27:30;24.00;;;16.33;;
35644;SDS011;21764;52.042;6.830;2023-05-07T11:32:31;22.05;;;16.95;;
35644;SDS011;21764;52.042;6.830;2023-05-07T11:37:32;18.30;;;14.13;;
35644;SDS011;21764;52.042;6.830;2023-05-07T11:42:34;20.45;;;14.15;;
35644;SDS011;21764;52.042;6.830;2023-05-07T11:47:41;17.73;;;14.45;;
35644;SDS011;21764;52.042;6.830;2023-05-07T11:52:49;21.83;;;15.70;;
35644;SDS011;21764;52.042;6.830;2023-05-07T11:57:51;21.67;;;15.55;;
35644;SDS011;21764;52.042;6.830;2023-05-07T12:02:52;22.33;;;15.65;;
35644;SDS011;21764;52.042;6.830;2023-05-07T12:07:55;20.02;;;15.07;;
35644;SDS011;21764;52.042;6.830;2023-05-07T12:12:58;22.10;;;15.82;;
35644;SDS011;21764;52.042;6.830;2023-05-07T12:17:59;23.95;;;17.33;;
35644;SDS011;21764;52.042;6.830;2023-05-07T12:23:00;21.67;;;17.17;;
35644;SDS011;21764;52.042;6.830;2023-05-07T12:28:02;23.05;;;17.90;;
35644;SDS011;21764;52.042;6.830;2023-05-07T12:33:04;27.38;;;17.65;;
35644;SDS011;21764;52.042;6.830;2023-05-07T12:38:09;25.05;;;17.35;;
35644;SDS011;21764;52.042;6.830;2023-05-07T12:43:21;24.55;;;16.23;;
35644;SDS011;21764;52.042;6.830;2023-05-07T12:48:25;20.92;;;16.05;;
35644;SDS011;21764;52.042;6.830;2023-05-07T12:53:29;22.48;;;15.50;;
35644;SDS011;21764;52.042;6.830;2023-05-07T12:58:33;20.33;;;14.63;;
35644;SDS011;21764;52.042;6.830;2023-05-07T13:08:37;20.08;;;13.20;;
35644;SDS011;21764;52.042;6.830;2023-05-07T13:13:40;15.30;;;11.27;;
35644;SDS011;21764;52.042;6.830;2023-05-07T13:18:41;15.50;;;10.95;;
35644;SDS011;21764;52.042;6.830;2023-05-07T13:23:43;14.38;;;9.93;;
35644;SDS011;21764;52.042;6.830;2023-05-07T13:28:44;14.40;;;9.27;;
35644;SDS011;21764;52.042;6.830;2023-05-07T13:33:44;12.23;;;8.63;;
35644;SDS011;21764;52.042;6.830;2023-05-07T13:38:45;10.18;;;7.32;;
35644;SDS011;21764;52.042;6.830;2023-05-07T13:43:46;13.80;;;9.27;;
35644;SDS011;21764;52.042;6.830;2023-05-07T13:48:47;10.88;;;8.23;;
35644;SDS011;21764;52.042;6.830;2023-05-07T13:53:47;11.75;;;8.00;;
35644;SDS011;21764;52.042;6.830;2023-05-07T13:58:48;12.98;;;7.95;;
35644;SDS011;21764;52.042;6.830;2023-05-07T14:03:49;10.75;;;7.60;;
35644;SDS011;21764;52.042;6.830;2023-05-07T14:08:49;16.20;;;8.43;;
35644;SDS011;21764;52.042;6.830;2023-05-07T14:13:50;10.48;;;7.90;;
35644;SDS011;21764;52.042;6.830;2023-05-07T14:18:51;10.13;;;7.18;;
35644;SDS011;21764;52.042;6.830;2023-05-07T14:23:52;13.15;;;8.10;;
35644;SDS011;21764;52.042;6.830;2023-05-07T14:28:52;10.00;;;7.22;;
35644;SDS011;21764;52.042;6.830;2023-05-07T14:33:54;13.55;;;7.50;;
35644;SDS011;21764;52.042;6.830;2023-05-07T14:38:57;11.63;;;7.95;;
35644;SDS011;21764;52.042;6.830;2023-05-07T14:43:59;10.52;;;7.57;;
35644;SDS011;21764;52.042;6.830;2023-05-07T14:49:01;12.20;;;7.57;;
35644;SDS011;21764;52.042;6.830;2023-05-07T14:54:02;15.38;;;8.30;;
35644;SDS011;21764;52.042;6.830;2023-05-07T14:59:03;11.75;;;8.68;;
35644;SDS011;21764;52.042;6.830;2023-05-07T15:04:04;10.93;;;8.45;;
35644;SDS011;21764;52.042;6.830;2023-05-07T15:09:05;16.30;;;8.55;;
35644;SDS011;21764;52.042;6.830;2023-05-07T15:14:05;14.02;;;7.65;;
35644;SDS011;21764;52.042;6.830;2023-05-07T15:19:06;9.60;;;7.30;;
35644;SDS011;21764;52.042;6.830;2023-05-07T15:24:07;13.63;;;6.60;;
35644;SDS011;21764;52.042;6.830;2023-05-07T15:29:08;10.85;;;6.10;;
35644;SDS011;21764;52.042;6.830;2023-05-07T15:34:09;11.23;;;7.38;;
35644;SDS011;21764;52.042;6.830;2023-05-07T15:39:10;7.32;;;6.18;;
35644;SDS011;21764;52.042;6.830;2023-05-07T15:44:11;9.77;;;6.70;;
35644;SDS011;21764;52.042;6.830;2023-05-07T15:49:12;8.70;;;6.45;;
35644;SDS011;21764;52.042;6.830;2023-05-07T15:54:12;11.52;;;7.82;;
35644;SDS011;21764;52.042;6.830;2023-05-07T15:59:15;8.52;;;7.20;;
35644;SDS011;21764;52.042;6.830;2023-05-07T16:04:16;8.40;;;6.28;;
35644;SDS011;21764;52.042;6.830;2023-05-07T16:09:17;14.30;;;6.82;;
35644;SDS011;21764;52.042;6.830;2023-05-07T16:14:17;10.45;;;6.28;;
35644;SDS011;21764;52.042;6.830;2023-05-07T16:19:18;16.40;;;6.90;;
35644;SDS011;21764;52.042;6.830;2023-05-07T16:24:19;8.40;;;6.80;;
35644;SDS011;21764;52.042;6.830;2023-05-07T16:29:20;11.57;;;7.38;;
35644;SDS011;21764;52.042;6.830;2023-05-07T16:34:22;11.63;;;8.73;;
35644;SDS011;21764;52.042;6.830;2023-05-07T16:39:22;12.00;;;8.85;;
35644;SDS011;21764;52.042;6.830;2023-05-07T16:44:23;15.52;;;8.48;;
35644;SDS011;21764;52.042;6.830;2023-05-07T16:49:23;11.73;;;8.90;;
35644;SDS011;21764;52.042;6.830;2023-05-07T16:54:24;10.85;;;8.77;;
35644;SDS011;21764;52.042;6.830;2023-05-07T16:59:25;13.98;;;9.95;;
35644;SDS011;21764;52.042;6.830;2023-05-07T17:04:27;12.40;;;9.48;;
35644;SDS011;21764;52.042;6.830;2023-05-07T17:09:28;14.50;;;10.23;;
35644;SDS011;21764;52.042;6.830;2023-05-07T17:14:29;14.13;;;9.60;;
35644;SDS011;21764;52.042;6.830;2023-05-07T17:19:30;12.95;;;9.60;;
35644;SDS011;21764;52.042;6.830;2023-05-07T17:24:31;16.23;;;9.73;;
35644;SDS011;21764;52.042;6.830;2023-05-07T17:29:31;14.48;;;10.23;;
35644;SDS011;21764;52.042;6.830;2023-05-07T17:34:32;11.55;;;9.20;;
35644;SDS011;21764;52.042;6.830;2023-05-07T17:39:33;16.48;;;10.52;;
35644;SDS011;21764;52.042;6.830;2023-05-07T17:44:33;18.77;;;10.02;;
35644;SDS011;21764;52.042;6.830;2023-05-07T17:49:34;18.67;;;11.32;;
35644;SDS011;21764;52.042;6.830;2023-05-07T17:54:36;13.68;;;10.88;;
35644;SDS011;21764;52.042;6.830;2023-05-07T17:59:37;16.08;;;10.63;;
35644;SDS011;21764;52.042;6.830;2023-05-07T18:04:38;14.13;;;10.02;;
35644;SDS011;21764;52.042;6.830;2023-05-07T18:09:38;14.13;;;10.30;;
35644;SDS011;21764;52.042;6.830;2023-05-07T18:14:40;16.20;;;9.32;;
35644;SDS011;21764;52.042;6.830;2023-05-07T18:19:41;15.02;;;10.80;;
35644;SDS011;21764;52.042;6.830;2023-05-07T18:24:42;13.60;;;10.02;;
35644;SDS011;21764;52.042;6.830;2023-05-07T18:29:42;14.38;;;9.52;;
35644;SDS011;21764;52.042;6.830;2023-05-07T18:34:43;11.57;;;8.90;;
35644;SDS011;21764;52.042;6.830;2023-05-07T18:39:43;12.93;;;10.10;;
35644;SDS011;21764;52.042;6.830;2023-05-07T18:44:45;14.55;;;8.70;;
35644;SDS011;21764;52.042;6.830;2023-05-07T18:49:45;14.50;;;9.38;;
35644;SDS011;21764;52.042;6.830;2023-05-07T18:54:46;12.23;;;9.38;;
35644;SDS011;21764;52.042;6.830;2023-05-07T18:59:47;12.50;;;8.85;;
35644;SDS011;21764;52.042;6.830;2023-05-07T19:04:48;14.73;;;10.02;;
35644;SDS011;21764;52.042;6.830;2023-05-07T19:09:48;11.68;;;9.73;;
35644;SDS011;21764;52.042;6.830;2023-05-07T19:14:49;13.18;;;10.02;;
35644;SDS011;21764;52.042;6.830;2023-05-07T19:19:50;20.20;;;10.43;;
35644;SDS011;21764;52.042;6.830;2023-05-07T19:24:51;12.50;;;10.10;;
35644;SDS011;21764;52.042;6.830;2023-05-07T19:29:52;16.70;;;9.38;;
35644;SDS011;21764;52.042;6.830;2023-05-07T19:34:53;12.85;;;10.25;;
35644;SDS011;21764;52.042;6.830;2023-05-07T19:39:53;12.75;;;9.93;;
35644;SDS011;21764;52.042;6.830;2023-05-07T19:44:54;14.00;;;10.80;;
35644;SDS011;21764;52.042;6.830;2023-05-07T19:49:55;15.82;;;10.30;;
35644;SDS011;21764;52.042;6.830;2023-05-07T19:54:55;15.82;;;10.10;;
35644;SDS011;21764;52.042;6.830;2023-05-07T19:59:56;16.35;;;11.80;;
35644;SDS011;21764;52.042;6.830;2023-05-07T20:04:57;16.95;;;11.73;;
35644;SDS011;21764;52.042;6.830;2023-05-07T20:09:57;15.27;;;11.30;;
35644;SDS011;21764;52.042;6.830;2023-05-07T20:14:58;18.50;;;11.85;;
35644;SDS011;21764;52.042;6.830;2023-05-07T20:19:59;17.17;;;12.73;;
35644;SDS011;21764;52.042;6.830;2023-05-07T20:25:02;19.73;;;12.13;;
35644;SDS011;21764;52.042;6.830;2023-05-07T20:30:05;17.95;;;13.13;;
35644;SDS011;21764;52.042;6.830;2023-05-07T20:35:06;22.83;;;13.27;;
35644;SDS011;21764;52.042;6.830;2023-05-07T20:40:08;18.98;;;13.75;;
35644;SDS011;21764;52.042;6.830;2023-05-07T20:45:09;20.02;;;13.48;;
35644;SDS011;21764;52.042;6.830;2023-05-07T20:50:10;19.80;;;14.18;;
35644;SDS011;21764;52.042;6.830;2023-05-07T20:55:10;18.23;;;13.90;;
35644;SDS011;21764;52.042;6.830;2023-05-07T21:00:11;18.63;;;14.65;;
35644;SDS011;21764;52.042;6.830;2023-05-07T21:05:12;20.13;;;14.15;;
35644;SDS011;21764;52.042;6.830;2023-05-07T21:10:13;22.00;;;14.77;;
35644;SDS011;21764;52.042;6.830;2023-05-07T21:15:13;19.48;;;14.13;;
35644;SDS011;21764;52.042;6.830;2023-05-07T21:20:14;21.27;;;14.05;;
35644;SDS011;21764;52.042;6.830;2023-05-07T21:25:15;21.02;;;14.05;;
35644;SDS011;21764;52.042;6.830;2023-05-07T21:30:16;23.77;;;14.18;;
35644;SDS011;21764;52.042;6.830;2023-05-07T21:35:16;19.90;;;14.82;;
35644;SDS011;21764;52.042;6.830;2023-05-07T21:40:17;18.45;;;14.13;;
35644;SDS011;21764;52.042;6.830;2023-05-07T21:45:18;18.73;;;14.32;;
35644;SDS011;21764;52.042;6.830;2023-05-07T21:50:18;18.25;;;14.48;;
35644;SDS011;21764;52.042;6.830;2023-05-07T21:55:20;20.75;;;14.43;;
35644;SDS011;21764;52.042;6.830;2023-05-07T22:00:21;18.27;;;15.10;;
35644;SDS011;21764;52.042;6.830;2023-05-07T22:05:22;21.00;;;14.80;;
35644;SDS011;21764;52.042;6.830;2023-05-07T22:10:23;20.73;;;14.85;;
35644;SDS011;21764;52.042;6.830;2023-05-07T22:15:24;21.05;;;13.65;;
35644;SDS011;21764;52.042;6.830;2023-05-07T22:20:24;20.42;;;14.15;;
35644;SDS011;21764;52.042;6.830;2023-05-07T22:25:25;20.45;;;14.07;;
35644;SDS011;21764;52.042;6.830;2023-05-07T22:30:26;20.33;;;15.25;;
35644;SDS011;21764;52.042;6.830;2023-05-07T22:35:27;20.90;;;14.70;;
35644;SDS011;21764;52.042;6.830;2023-05-07T22:40:27;22.88;;;15.15;;
35644;SDS011;21764;52.042;6.830;2023-05-07T22:45:28;20.13;;;15.40;;
35644;SDS011;21764;52.042;6.830;2023-05-07T22:50:29;21.42;;;14.73;;
35644;SDS011;21764;52.042;6.830;2023-05-07T22:55:29;23.60;;;15.35;;
35644;SDS011;21764;52.042;6.830;2023-05-07T23:00:31;18.48;;;15.73;;
35644;SDS011;21764;52.042;6.830;2023-05-07T23:05:32;19.75;;;14.98;;
35644;SDS011;21764;52.042;6.830;2023-05-07T23:10:32;25.52;;;16.92;;
35644;SDS011;21764;52.042;6.830;2023-05-07T23:15:34;20.83;;;16.52;;
35644;SDS011;21764;52.042;6.830;2023-05-07T23:20:34;23.05;;;17.73;;
35644;SDS011;21764;52.042;6.830;2023-05-07T23:25:35;23.52;;;17.33;;
35644;SDS011;21764;52.042;6.830;2023-05-07T23:30:36;25.20;;;17.38;;
35644;SDS011;21764;52.042;6.830;2023-05-07T23:35:38;25.40;;;18.45;;
35644;SDS011;21764;52.042;6.830;2023-05-07T23:40:39;21.63;;;16.98;;
35644;SDS011;21764;52.042;6.830;2023-05-07T23:45:40;23.45;;;17.88;;
35644;SDS011;21764;52.042;6.830;2023-05-07T23:50:40;22.50;;;18.17;;
35644;SDS011;21764;52.042;6.830;2023-05-07T23:55:41;24.05;;;18.30;;
